Time;durP1;ratioP1;P1;durP2;ratioP2;P2;SDS_P1;SDS_P2;PMS_P1;PMS_P2;Temp;Humidity;BMP_temperature;BMP_pressure;BME280_temperature;BME280_humidity;BME280_pressure;Samples;Min_cycle;Max_cycle;Signal;HPM_P1;HPM_P2
2024/02/22 00:01:45;;;;;;;26.63;6.78;;;;;;;;;;4806237;29;20138;-85
2024/02/22 00:04:48;;;;;;;;;;;;;;;;;;;;;
2024/02/22 00:55:24;;;;;;;8.85;2.17;;;;;;;;;;4859037;29;20108;-87
2024/02/22 00:57:58;;;;;;;3.97;1.67;;;;;;;;;;4844000;29;20049;-87
2024/02/22 01:00:33;;;;;;;5.30;1.58;;;;;;;;;;4824451;29;20114;-88
2024/02/22 01:03:01;;;;;;;5.38;2.22;;;;;;;;;;4853569;29;20052;-87
2024/02/22 01:05:35;;;;;;;8.05;2.00;;;;;;;;;;4860724;29;20038;-86
2024/02/22 01:08:08;;;;;;;6.78;1.55;;;;;;;;;;4842162;29;20041;-87
2024/02/22 01:10:37;;;;;;;;;;;;;;;;;;4844264;29;20042;-87
2024/02/22 01:13:05;;;;;;;4.13;1.13;;;;;;;;;;4843270;29;19957;-87
2024/02/22 01:15:32;;;;;;;4.95;1.55;;;;;;;;;;4843722;29;20061;-87
2024/02/22 01:18:05;;;;;;;3.97;0.82;;;;;;;;;;4841810;29;20493;-87
2024/02/22 01:20:37;;;;;;;1.77;0.35;;;;;;;;;;4839973;29;20054;-87
2024/02/22 01:23:06;;;;;;;8.55;1.77;;;;;;;;;;4841129;29;20066;-86
2024/02/22 01:25:36;;;;;;;4.95;1.73;;;;;;;;;;4846350;29;20511;-87
2024/02/22 01:28:06;;;;;;;2.42;0.52;;;;;;;;;;4844530;29;20091;-86
2024/02/22 01:30:32;;;;;;;1.25;0.52;;;;;;;;;;4836783;29;20053;-88
2024/02/22 01:33:03;;;;;;;0.95;0.22;;;;;;;;;;4842500;29;20129;-87
2024/02/22 01:39:16;;;;;;;0.68;0.10;;;;;;;;;;4816881;29;20061;-86
2024/02/22 01:45:32;;;;;;;0.82;0.20;;;;;;;;;;4799084;29;20528;-87
2024/02/22 01:48:02;;;;;;;3.20;0.20;;;;;;;;;;4788231;29;20095;-88
2024/02/22 01:50:30;;;;;;;0.38;0.10;;;;;;;;;;4815524;29;20057;-86
2024/02/22 01:52:59;;;;;;;4.43;0.20;;;;;;;;;;4819026;29;20043;-86
2024/02/22 01:55:33;;;;;;;1.05;0.45;;;;;;;;;;4793454;29;20058;-87
2024/02/22 02:23:26;;;;;;;;;;;;;;;;;;;;;
2024/02/22 02:33:32;;;;;;;0.20;0.10;;;;;;;;;;4876010;29;20068;-85
2024/02/22 02:36:16;;;;;;;0.35;0.10;;;;;;;;;;4860068;29;20056;-85
2024/02/22 02:39:23;;;;;;;0.10;0.08;;;;;;;;;;4860698;29;20077;-85
2024/02/22 02:42:17;;;;;;;0.45;0.20;;;;;;;;;;4790791;29;20047;-85
2024/02/22 02:44:44;;;;;;;0.35;0.13;;;;;;;;;;4798575;29;20073;-84
2024/02/22 02:47:14;;;;;;;0.20;0.08;;;;;;;;;;4797854;29;20482;-86
2024/02/22 02:50:19;;;;;;;;;;;;;;;;;;;;;
2024/02/22 02:52:51;;;;;;;0.08;0.08;;;;;;;;;;4841816;29;20063;-86
2024/02/22 02:55:22;;;;;;;0.32;0.10;;;;;;;;;;4818960;29;20525;-86
2024/02/22 02:57:54;;;;;;;0.10;0.00;;;;;;;;;;4793264;29;20945;-87
2024/02/22 03:00:25;;;;;;;0.00;0.00;;;;;;;;;;4801082;29;20055;-86
2024/02/22 03:03:00;;;;;;;;;;;;;;;;;;4803290;29;20050;-87
2024/02/22 03:11:49;;;;;;;;;;;;;;;;;;;;;
2024/02/22 03:14:20;;;;;;;0.75;0.03;;;;;;;;;;4747493;30;20056;-85
2024/02/22 03:17:02;;;;;;;;;;;;;;;;;;;;;
2024/02/22 03:19:53;;;;;;;1.17;0.10;;;;;;;;;;4818691;29;20371;-86
2024/02/22 03:22:19;;;;;;;0.00;0.00;;;;;;;;;;4806578;29;20050;-84
2024/02/22 03:24:46;;;;;;;0.15;0.10;;;;;;;;;;4821702;29;20179;-85
2024/02/22 03:27:15;;;;;;;0.05;0.00;;;;;;;;;;4838836;29;20046;-84
2024/02/22 03:29:46;;;;;;;0.45;0.10;;;;;;;;;;4819614;29;20486;-84
2024/02/22 03:32:15;;;;;;;1.27;1.20;;;;;;;;;;4840999;29;20095;-84
2024/02/22 03:34:44;;;;;;;0.00;0.00;;;;;;;;;;4841139;29;20064;-84
2024/02/22 03:37:12;;;;;;;0.10;0.00;;;;;;;;;;4841418;29;20057;-84
2024/02/22 03:39:44;;;;;;;0.22;0.08;;;;;;;;;;4872003;29;20132;-83
2024/02/22 03:42:12;;;;;;;0.10;0.00;;;;;;;;;;4859860;29;20127;-84
2024/02/22 03:44:38;;;;;;;0.10;0.00;;;;;;;;;;4854027;29;20044;-83
2024/02/22 03:47:05;;;;;;;0.25;0.05;;;;;;;;;;4876411;29;20048;-84
2024/02/22 03:49:34;;;;;;;0.40;0.10;;;;;;;;;;4859192;29;20076;-84
2024/02/22 03:52:18;;;;;;;0.43;0.03;;;;;;;;;;4850450;29;20045;-85
2024/02/22 03:55:03;;;;;;;0.00;0.00;;;;;;;;;;4851988;29;20069;-85
2024/02/22 03:57:32;;;;;;;0.52;0.10;;;;;;;;;;4859736;29;20135;-84
2024/02/22 04:00:52;;;;;;;0.00;0.00;;;;;;;;;;4878905;29;20117;-85
2024/02/22 04:03:54;;;;;;;0.00;0.00;;;;;;;;;;4887510;24;20049;-87
2024/02/22 04:12:01;;;;;;;5.47;0.03;;;;;;;;;;4858691;24;20057;-85
2024/02/22 04:14:36;;;;;;;;;;;;;;;;;;4822535;29;20038;-84
2024/02/22 04:17:35;;;;;;;0.32;0.00;;;;;;;;;;4819295;29;19947;-86
2024/02/22 04:20:05;;;;;;;0.73;0.30;;;;;;;;;;4786822;29;20068;-84
2024/02/22 04:22:33;;;;;;;1.35;0.30;;;;;;;;;;4822405;29;20393;-84
2024/02/22 04:24:59;;;;;;;4.00;0.47;;;;;;;;;;4821835;29;20045;-84
2024/02/22 04:27:25;;;;;;;2.63;0.28;;;;;;;;;;4820762;29;20045;-84
2024/02/22 04:29:54;;;;;;;0.22;0.03;;;;;;;;;;4811115;29;20088;-84
2024/02/22 04:32:26;;;;;;;0.20;0.10;;;;;;;;;;4821691;29;20435;-84
2024/02/22 04:34:59;;;;;;;0.65;0.10;;;;;;;;;;4823558;29;20095;-84
2024/02/22 04:37:36;;;;;;;0.00;0.00;;;;;;;;;;4827166;29;20065;-84
2024/02/22 04:40:08;;;;;;;0.52;0.30;;;;;;;;;;4807775;29;20046;-83
2024/02/22 04:42:39;;;;;;;1.10;0.50;;;;;;;;;;4824240;29;20132;-82
2024/02/22 04:45:06;;;;;;;0.63;0.10;;;;;;;;;;4825845;29;20053;-83
2024/02/22 04:47:36;;;;;;;0.30;0.20;;;;;;;;;;4841970;29;20050;-83
2024/02/22 04:50:03;;;;;;;0.40;0.20;;;;;;;;;;4808980;29;20046;-82
2024/02/22 04:52:29;;;;;;;0.10;0.03;;;;;;;;;;4819852;29;20050;-82
2024/02/22 04:54:56;;;;;;;0.20;0.10;;;;;;;;;;4825505;29;20042;-82
2024/02/22 04:57:22;;;;;;;0.25;0.00;;;;;;;;;;4839764;29;20054;-82
2024/02/22 04:59:48;;;;;;;1.10;0.17;;;;;;;;;;4823464;29;20406;-81
2024/02/22 05:02:15;;;;;;;0.30;0.10;;;;;;;;;;4835150;29;20058;-80
2024/02/22 06:45:26;;;;;;;1.58;0.55;;;;;;;;;;5055622;28;20392;-79
2024/02/22 06:47:52;;;;;;;2.13;0.20;;;;;;;;;;5059408;28;20364;-79
2024/02/22 06:50:18;;;;;;;0.65;0.00;;;;;;;;;;5046381;28;20124;-79
2024/02/22 06:52:44;;;;;;;0.85;0.20;;;;;;;;;;5047088;28;20498;-78
2024/02/22 06:55:12;;;;;;;0.50;0.15;;;;;;;;;;5045722;28;20037;-79
2024/02/22 06:57:38;;;;;;;0.35;0.20;;;;;;;;;;5046485;28;20035;-79
2024/02/22 07:00:05;;;;;;;0.00;0.00;;;;;;;;;;5045523;28;20037;-78
2024/02/22 07:02:31;;;;;;;0.75;0.10;;;;;;;;;;5046193;28;20605;-78
2024/02/22 07:04:56;;;;;;;0.25;0.03;;;;;;;;;;5045927;28;20479;-79
2024/02/22 07:07:22;;;;;;;0.00;0.00;;;;;;;;;;5045530;28;20049;-79
2024/02/22 07:09:49;;;;;;;0.10;0.03;;;;;;;;;;5051005;28;20106;-79
2024/02/22 07:12:15;;;;;;;0.70;0.10;;;;;;;;;;5054324;28;20047;-79
2024/02/22 07:14:40;;;;;;;1.38;0.30;;;;;;;;;;5047042;28;20686;-79
2024/02/22 07:17:07;;;;;;;0.03;0.00;;;;;;;;;;5054562;28;20029;-79
2024/02/22 07:19:33;;;;;;;0.80;0.22;;;;;;;;;;5050237;28;20029;-79
2024/02/22 07:21:59;;;;;;;0.50;0.20;;;;;;;;;;5045276;28;20393;-78
2024/02/22 07:24:25;;;;;;;0.22;0.10;;;;;;;;;;5046044;28;20048;-78
2024/02/22 07:26:51;;;;;;;;;;;;;;;;;;5046618;28;20029;-78
2024/02/22 07:29:17;;;;;;;;;;;;;;;;;;5046666;28;19916;-78
2024/02/22 07:31:43;;;;;;;0.10;0.10;;;;;;;;;;5046191;28;19975;-78
2024/02/22 07:34:09;;;;;;;;;;;;;;;;;;5046565;28;20040;-79
2024/02/22 07:36:36;;;;;;;0.08;0.08;;;;;;;;;;5062729;28;19909;-78
2024/02/22 07:39:02;;;;;;;1.38;0.50;;;;;;;;;;5046751;28;20943;-78
2024/02/22 07:41:28;;;;;;;0.95;0.38;;;;;;;;;;5046395;28;20029;-78
2024/02/22 07:43:56;;;;;;;0.10;0.10;;;;;;;;;;5045236;28;20160;-78
2024/02/22 07:46:22;;;;;;;0.38;0.10;;;;;;;;;;5045655;28;20021;-78
2024/02/22 07:48:48;;;;;;;0.03;0.00;;;;;;;;;;5045366;28;20039;-78
2024/02/22 07:51:14;;;;;;;;;;;;;;;;;;5026200;28;20022;-78
2024/02/22 07:53:40;;;;;;;0.08;0.00;;;;;;;;;;5031875;28;19928;-79
2024/02/22 07:56:07;;;;;;;0.47;0.20;;;;;;;;;;5035882;28;20711;-78
2024/02/22 07:58:45;;;;;;;0.10;0.10;;;;;;;;;;5035511;28;20094;-78
2024/02/22 08:01:11;;;;;;;0.10;0.00;;;;;;;;;;5032102;28;20678;-78
2024/02/22 08:03:37;;;;;;;0.30;0.10;;;;;;;;;;5032971;28;20026;-78
2024/02/22 08:06:03;;;;;;;1.00;0.10;;;;;;;;;;5030776;28;20425;-78
2024/02/22 08:08:29;;;;;;;1.38;0.20;;;;;;;;;;5033147;28;20506;-78
2024/02/22 08:10:55;;;;;;;;;;;;;;;;;;5033130;28;20814;-77
2024/02/22 08:13:21;;;;;;;;;;;;;;;;;;5033065;28;19943;-78
2024/02/22 08:15:47;;;;;;;;;;;;;;;;;;5032671;28;19924;-78
2024/02/22 08:18:13;;;;;;;;;;;;;;;;;;5033042;28;19917;-78
2024/02/22 08:20:40;;;;;;;1.85;0.57;;;;;;;;;;5032045;28;20661;-78
2024/02/22 08:23:08;;;;;;;2.67;0.95;;;;;;;;;;5031908;28;20045;-78
2024/02/22 08:25:37;;;;;;;0.90;0.63;;;;;;;;;;5032201;28;20127;-79
2024/02/22 08:28:03;;;;;;;;;;;;;;;;;;5041663;28;20113;-79
2024/02/22 08:30:29;;;;;;;2.75;0.50;;;;;;;;;;5052405;28;20347;-79
2024/02/22 08:32:55;;;;;;;;;;;;;;;;;;5036570;28;20360;-79
2024/02/22 08:35:21;;;;;;;8.05;0.77;;;;;;;;;;5033714;28;19913;-80
2024/02/22 08:37:47;;;;;;;9.82;0.70;;;;;;;;;;5037216;28;20035;-79
2024/02/22 08:40:13;;;;;;;3.58;1.02;;;;;;;;;;5047107;28;20047;-80
2024/02/22 08:42:39;;;;;;;5.65;0.43;;;;;;;;;;5032117;28;20041;-79
2024/02/22 08:45:05;;;;;;;0.20;0.10;;;;;;;;;;5047913;28;20053;-79
2024/02/22 08:47:31;;;;;;;1.00;0.22;;;;;;;;;;5044130;28;20363;-79
2024/02/22 08:49:58;;;;;;;0.80;0.20;;;;;;;;;;5052241;28;20067;-79
2024/02/22 08:52:25;;;;;;;6.78;0.88;;;;;;;;;;5041709;28;20033;-80
2024/02/22 08:54:54;;;;;;;3.72;1.08;;;;;;;;;;5030409;28;20036;-80
2024/02/22 08:57:20;;;;;;;9.25;2.30;;;;;;;;;;5043282;28;20036;-80
2024/02/22 08:59:48;;;;;;;8.30;1.63;;;;;;;;;;5045313;28;20033;-79
2024/02/22 09:02:14;;;;;;;0.57;0.30;;;;;;;;;;5034295;28;20029;-79
2024/02/22 09:04:40;;;;;;;1.23;0.50;;;;;;;;;;5039336;28;20037;-79
2024/02/22 09:07:06;;;;;;;0.60;0.22;;;;;;;;;;5036052;28;20037;-79
2024/02/22 09:09:32;;;;;;;1.33;0.52;;;;;;;;;;5031626;28;20052;-79
2024/02/22 09:11:58;;;;;;;0.88;0.50;;;;;;;;;;5037304;28;20121;-79
2024/02/22 09:14:25;;;;;;;1.02;0.40;;;;;;;;;;5051446;28;20040;-79
2024/02/22 09:16:51;;;;;;;3.92;0.50;;;;;;;;;;5032624;28;20021;-79
2024/02/22 09:19:17;;;;;;;4.82;0.82;;;;;;;;;;5031863;28;20076;-79
2024/02/22 09:21:48;;;;;;;1.95;0.55;;;;;;;;;;5030705;28;20071;-80
2024/02/22 09:24:14;;;;;;;1.65;0.38;;;;;;;;;;5031207;28;20069;-80
2024/02/22 09:26:40;;;;;;;0.10;0.10;;;;;;;;;;5033926;28;20036;-79
2024/02/22 09:29:06;;;;;;;1.83;0.38;;;;;;;;;;5030917;28;20436;-79
2024/02/22 09:31:32;;;;;;;0.17;0.08;;;;;;;;;;5048195;28;20060;-79
2024/02/22 09:34:00;;;;;;;1.45;0.30;;;;;;;;;;5030532;28;20112;-79
2024/02/22 09:36:26;;;;;;;2.28;0.50;;;;;;;;;;5010886;28;20037;-79
2024/02/22 09:38:52;;;;;;;2.70;0.65;;;;;;;;;;5036172;28;20037;-79
2024/02/22 09:41:19;;;;;;;2.38;0.47;;;;;;;;;;5050432;28;20043;-79
2024/02/22 09:43:45;;;;;;;1.13;0.40;;;;;;;;;;5031220;28;20057;-79
2024/02/22 09:46:11;;;;;;;2.45;0.47;;;;;;;;;;5032832;28;20467;-78
2024/02/22 09:48:37;;;;;;;2.90;0.95;;;;;;;;;;5028418;28;20030;-79
2024/02/22 09:51:04;;;;;;;4.40;1.20;;;;;;;;;;5030522;28;20029;-79
2024/02/22 09:53:30;;;;;;;5.75;1.52;;;;;;;;;;5029755;28;20045;-79
2024/02/22 09:55:56;;;;;;;1.75;0.70;;;;;;;;;;5033850;28;20037;-79
2024/02/22 09:58:22;;;;;;;3.83;1.85;;;;;;;;;;5040523;28;20065;-79
2024/02/22 10:00:50;;;;;;;19.95;5.43;;;;;;;;;;5038191;28;20467;-79
2024/02/22 10:03:16;;;;;;;6.13;2.17;;;;;;;;;;5030395;28;20475;-79
2024/02/22 10:05:42;;;;;;;13.73;3.97;;;;;;;;;;5046248;28;20028;-79
2024/02/22 10:08:13;;;;;;;13.45;2.33;;;;;;;;;;5043065;28;20045;-79
2024/02/22 10:10:40;;;;;;;3.60;0.90;;;;;;;;;;5030604;28;20121;-80
2024/02/22 10:13:06;;;;;;;1.38;0.63;;;;;;;;;;5037246;28;20024;-80
2024/02/22 10:15:33;;;;;;;1.50;0.65;;;;;;;;;;5030708;28;20079;-80
2024/02/22 10:17:59;;;;;;;1.77;0.68;;;;;;;;;;5029613;28;20022;-80
2024/02/22 10:20:32;;;;;;;1.77;0.50;;;;;;;;;;5030172;28;20128;-79
2024/02/22 10:23:05;;;;;;;3.58;1.27;;;;;;;;;;5039919;28;20028;-79
2024/02/22 10:25:31;;;;;;;1.95;0.60;;;;;;;;;;5030710;28;20121;-79
2024/02/22 10:27:57;;;;;;;4.38;1.17;;;;;;;;;;5028656;28;20676;-79
2024/02/22 10:30:26;;;;;;;0.43;0.20;;;;;;;;;;5029422;28;20108;-79
2024/02/22 10:32:55;;;;;;;1.35;0.30;;;;;;;;;;5029992;28;20079;-78
2024/02/22 10:35:23;;;;;;;0.40;0.20;;;;;;;;;;5029711;28;20038;-77
2024/02/22 10:37:53;;;;;;;1.30;0.30;;;;;;;;;;5033635;28;20037;-77
2024/02/22 10:40:20;;;;;;;1.10;0.20;;;;;;;;;;5041787;28;20052;-78
2024/02/22 10:42:49;;;;;;;0.77;0.10;;;;;;;;;;5029958;28;20037;-78
2024/02/22 10:45:15;;;;;;;3.50;0.90;;;;;;;;;;5028937;28;20052;-77
2024/02/22 10:47:41;;;;;;;8.67;0.97;;;;;;;;;;5028701;28;20777;-79
2024/02/22 10:50:08;;;;;;;2.50;0.83;;;;;;;;;;5030970;28;20407;-78
2024/02/22 10:52:39;;;;;;;4.72;1.27;;;;;;;;;;5049058;28;20029;-78
2024/02/22 10:55:09;;;;;;;1.27;0.47;;;;;;;;;;5041333;28;20036;-78
2024/02/22 10:57:36;;;;;;;2.35;0.68;;;;;;;;;;5030195;28;20068;-78
2024/02/22 11:00:02;;;;;;;8.40;2.28;;;;;;;;;;5031487;28;20041;-78
2024/02/22 11:02:29;;;;;;;2.00;0.70;;;;;;;;;;5050155;28;20032;-78
2024/02/22 11:05:02;;;;;;;2.60;0.52;;;;;;;;;;5045806;28;20435;-79
2024/02/22 11:07:28;;;;;;;2.80;1.20;;;;;;;;;;5029703;28;20105;-79
2024/02/22 11:09:54;;;;;;;10.25;2.95;;;;;;;;;;5029509;28;20121;-79
2024/02/22 11:12:20;;;;;;;7.10;2.28;;;;;;;;;;5029844;28;20132;-81
2024/02/22 11:14:46;;;;;;;2.85;0.68;;;;;;;;;;5032010;28;20368;-79
2024/02/22 11:17:17;;;;;;;3.58;0.82;;;;;;;;;;5029284;28;20036;-78
2024/02/22 11:19:44;;;;;;;4.10;1.25;;;;;;;;;;5030099;28;20051;-78
2024/02/22 11:22:16;;;;;;;8.32;1.92;;;;;;;;;;5033448;28;20396;-78
2024/02/22 11:24:42;;;;;;;;;;;;;;;;;;5030128;28;20376;-79
2024/02/22 11:27:08;;;;;;;2.05;0.70;;;;;;;;;;5016817;28;20371;-79
2024/02/22 11:29:34;;;;;;;9.85;3.15;;;;;;;;;;5018475;28;20037;-79
2024/02/22 11:32:01;;;;;;;3.63;0.68;;;;;;;;;;5024132;28;20018;-79
2024/02/22 11:34:27;;;;;;;2.25;1.13;;;;;;;;;;5012519;28;20053;-79
2024/02/22 11:36:56;;;;;;;2.35;0.80;;;;;;;;;;5026793;28;20048;-79
2024/02/22 11:39:23;;;;;;;2.95;0.60;;;;;;;;;;5044836;28;20040;-82
2024/02/22 11:41:49;;;;;;;3.00;0.90;;;;;;;;;;5035935;28;20495;-79
2024/02/22 11:44:16;;;;;;;2.72;0.90;;;;;;;;;;5032734;28;20080;-78
2024/02/22 11:46:45;;;;;;;7.55;1.55;;;;;;;;;;5032669;28;20027;-79
2024/02/22 11:49:11;;;;;;;6.00;0.70;;;;;;;;;;5013728;28;20531;-81
2024/02/22 11:51:40;;;;;;;4.28;2.25;;;;;;;;;;5017748;28;20491;-81
2024/02/22 11:54:06;;;;;;;1.95;0.52;;;;;;;;;;5013463;28;20098;-81
2024/02/22 11:56:32;;;;;;;2.50;0.52;;;;;;;;;;5014621;28;20022;-82
2024/02/22 11:58:58;;;;;;;2.83;0.98;;;;;;;;;;5031574;28;20048;-81
2024/02/22 12:01:27;;;;;;;2.65;0.50;;;;;;;;;;5042611;28;20063;-81
2024/02/22 12:03:54;;;;;;;1.23;0.38;;;;;;;;;;5032065;28;20036;-82
2024/02/22 12:06:20;;;;;;;13.00;0.70;;;;;;;;;;5032577;28;20029;-82
2024/02/22 12:08:47;;;;;;;1.10;0.30;;;;;;;;;;5019607;28;20746;-81
2024/02/22 12:11:13;;;;;;;2.85;0.47;;;;;;;;;;5033144;28;20025;-81
2024/02/22 12:13:39;;;;;;;1.55;0.55;;;;;;;;;;5042934;28;20052;-81
2024/02/22 12:16:06;;;;;;;1.05;0.20;;;;;;;;;;5053197;28;20154;-82
2024/02/22 12:18:33;;;;;;;1.13;0.35;;;;;;;;;;5037592;28;20512;-81
2024/02/22 12:20:59;;;;;;;2.28;0.68;;;;;;;;;;5046232;28;20061;-81
2024/02/22 12:23:26;;;;;;;2.08;0.57;;;;;;;;;;5032122;28;20077;-81
2024/02/22 12:25:54;;;;;;;1.83;0.52;;;;;;;;;;5031013;28;21947;-81
2024/02/22 12:28:20;;;;;;;3.17;0.55;;;;;;;;;;5031159;28;20410;-82
2024/02/22 12:30:46;;;;;;;1.70;0.63;;;;;;;;;;5035783;28;21281;-81
2024/02/22 12:33:24;;;;;;;2.38;0.43;;;;;;;;;;5021824;28;20030;-81
2024/02/22 12:35:50;;;;;;;0.85;0.40;;;;;;;;;;5019746;28;20040;-81
2024/02/22 12:38:16;;;;;;;2.40;0.30;;;;;;;;;;5031715;28;20152;-81
2024/02/22 12:40:44;;;;;;;2.17;0.63;;;;;;;;;;5032436;28;20036;-79
2024/02/22 12:43:13;;;;;;;0.45;0.35;;;;;;;;;;5031224;28;20055;-78
2024/02/22 12:45:39;;;;;;;3.70;0.50;;;;;;;;;;5032101;28;20463;-78
2024/02/22 12:48:06;;;;;;;6.07;1.63;;;;;;;;;;5027297;28;20056;-77
2024/02/22 12:50:33;;;;;;;5.82;1.83;;;;;;;;;;5026909;28;20036;-78
2024/02/22 12:53:00;;;;;;;2.25;0.70;;;;;;;;;;5042724;28;20036;-78
2024/02/22 12:55:26;;;;;;;1.80;0.50;;;;;;;;;;5036978;28;20404;-78
2024/02/22 12:57:52;;;;;;;;;;;;;;;;;;5045794;28;20025;-78
2024/02/22 13:00:18;;;;;;;0.30;0.13;;;;;;;;;;5032110;28;19917;-79
2024/02/22 13:02:44;;;;;;;0.73;0.20;;;;;;;;;;5026721;28;20435;-81
2024/02/22 13:05:10;;;;;;;0.45;0.08;;;;;;;;;;5026783;28;20049;-78
2024/02/22 13:07:37;;;;;;;;;;;;;;;;;;5031594;28;20695;-78
2024/02/22 13:10:05;;;;;;;1.30;0.55;;;;;;;;;;5032056;28;19956;-79
2024/02/22 13:12:34;;;;;;;0.10;0.10;;;;;;;;;;5030862;28;20029;-78
2024/02/22 13:15:00;;;;;;;1.88;0.15;;;;;;;;;;5036923;28;20406;-78
2024/02/22 13:17:26;;;;;;;0.22;0.10;;;;;;;;;;5037236;28;20044;-78
2024/02/22 13:19:52;;;;;;;0.00;0.00;;;;;;;;;;5028371;28;20037;-78
2024/02/22 13:22:18;;;;;;;0.95;0.20;;;;;;;;;;5030517;28;20354;-78
2024/02/22 13:24:44;;;;;;;2.40;0.40;;;;;;;;;;5030431;28;20045;-81
2024/02/22 13:27:15;;;;;;;0.43;0.25;;;;;;;;;;5049258;28;20029;-78
2024/02/22 13:29:41;;;;;;;1.35;0.30;;;;;;;;;;5031047;28;20064;-81
2024/02/22 13:32:07;;;;;;;0.20;0.15;;;;;;;;;;5031197;28;20025;-77
2024/02/22 13:34:33;;;;;;;1.17;0.20;;;;;;;;;;5030692;28;20633;-78
2024/02/22 13:36:59;;;;;;;0.85;0.20;;;;;;;;;;5046506;28;20112;-80
2024/02/22 13:39:26;;;;;;;0.65;0.20;;;;;;;;;;5043391;28;20107;-80
2024/02/22 13:41:54;;;;;;;0.98;0.20;;;;;;;;;;5030859;28;20076;-78
2024/02/22 13:44:23;;;;;;;1.20;0.28;;;;;;;;;;5029716;28;20050;-78
2024/02/22 13:46:49;;;;;;;0.10;0.10;;;;;;;;;;5030819;28;20021;-78
2024/02/22 13:49:19;;;;;;;1.23;0.17;;;;;;;;;;5048309;28;20119;-78
2024/02/22 13:51:49;;;;;;;0.93;0.30;;;;;;;;;;5050334;28;20386;-80
2024/02/22 13:54:15;;;;;;;0.40;0.20;;;;;;;;;;5031793;28;20029;-81
2024/02/22 13:56:45;;;;;;;0.45;0.10;;;;;;;;;;5029392;28;20029;-77
2024/02/22 13:59:12;;;;;;;0.65;0.00;;;;;;;;;;5030506;28;20029;-78
2024/02/22 14:01:38;;;;;;;1.38;0.35;;;;;;;;;;5033105;28;20040;-79
2024/02/22 14:04:05;;;;;;;0.40;0.10;;;;;;;;;;5049420;28;20929;-79
2024/02/22 14:06:31;;;;;;;3.53;0.17;;;;;;;;;;5020593;28;20108;-77
2024/02/22 14:08:57;;;;;;;;;;;;;;;;;;5029392;28;20108;-77
2024/02/22 14:11:23;;;;;;;0.50;0.10;;;;;;;;;;5030210;28;19983;-77
2024/02/22 14:13:49;;;;;;;;;;;;;;;;;;5031098;28;20056;-78
2024/02/22 14:16:18;;;;;;;0.60;0.15;;;;;;;;;;5034258;28;20365;-77
2024/02/22 14:18:44;;;;;;;0.43;0.10;;;;;;;;;;5050110;28;20048;-78
2024/02/22 14:21:13;;;;;;;;;;;;;;;;;;5039605;28;20383;-78
2024/02/22 14:23:39;;;;;;;0.30;0.10;;;;;;;;;;5030202;28;20194;-78
2024/02/22 14:26:05;;;;;;;1.27;0.43;;;;;;;;;;5029443;28;20041;-84
2024/02/22 14:28:31;;;;;;;;;;;;;;;;;;5030260;28;20049;-77
2024/02/22 14:30:58;;;;;;;0.20;0.00;;;;;;;;;;5029689;28;19943;-78
2024/02/22 14:33:24;;;;;;;;;;;;;;;;;;5045753;28;20378;-79
2024/02/22 14:35:50;;;;;;;0.10;0.03;;;;;;;;;;5041401;28;20006;-78
2024/02/22 14:38:16;;;;;;;1.27;0.52;;;;;;;;;;5035725;28;20037;-78
2024/02/22 14:40:43;;;;;;;0.10;0.05;;;;;;;;;;5037618;28;20134;-79
2024/02/22 14:43:09;;;;;;;0.88;0.10;;;;;;;;;;5028913;28;20033;-77
2024/02/22 14:45:35;;;;;;;0.43;0.20;;;;;;;;;;5034460;28;20029;-78
2024/02/22 14:48:01;;;;;;;0.38;0.30;;;;;;;;;;5028308;28;20030;-77
2024/02/22 14:50:27;;;;;;;;;;;;;;;;;;5033024;28;20025;-77
2024/02/22 14:52:54;;;;;;;0.15;0.05;;;;;;;;;;5029410;28;19909;-78
2024/02/22 14:55:20;;;;;;;0.75;0.20;;;;;;;;;;5029639;28;20029;-78
2024/02/22 14:57:47;;;;;;;1.60;0.40;;;;;;;;;;5028032;28;20149;-78
2024/02/22 15:00:14;;;;;;;1.10;0.40;;;;;;;;;;5029635;28;20045;-78
2024/02/22 15:02:41;;;;;;;0.00;0.00;;;;;;;;;;5029361;28;20051;-77
2024/02/22 15:05:07;;;;;;;0.30;0.10;;;;;;;;;;5030345;28;20471;-77
2024/02/22 15:07:33;;;;;;;0.30;0.10;;;;;;;;;;5033171;28;20026;-78
2024/02/22 15:10:00;;;;;;;0.77;0.28;;;;;;;;;;5032207;28;20079;-78
2024/02/22 15:12:26;;;;;;;0.45;0.20;;;;;;;;;;5033324;28;20096;-78
2024/02/22 15:14:52;;;;;;;0.57;0.20;;;;;;;;;;5034164;28;20029;-77
2024/02/22 15:17:22;;;;;;;1.83;0.40;;;;;;;;;;5031072;28;20484;-79
2024/02/22 15:19:51;;;;;;;1.48;0.35;;;;;;;;;;5034087;28;20112;-77
2024/02/22 15:22:18;;;;;;;0.00;0.00;;;;;;;;;;5032673;28;20037;-78
2024/02/22 15:24:44;;;;;;;2.70;0.28;;;;;;;;;;5036498;28;20064;-77
2024/02/22 15:27:10;;;;;;;0.82;0.20;;;;;;;;;;5045033;28;20444;-78
2024/02/22 15:29:36;;;;;;;0.68;0.22;;;;;;;;;;5014433;28;20108;-77
2024/02/22 15:32:04;;;;;;;0.85;0.20;;;;;;;;;;5014596;28;20108;-78
2024/02/22 15:34:31;;;;;;;0.22;0.10;;;;;;;;;;5040209;28;20068;-78
2024/02/22 15:36:57;;;;;;;0.00;0.00;;;;;;;;;;5053001;28;20029;-78
2024/02/22 15:39:23;;;;;;;2.28;0.20;;;;;;;;;;5034863;28;20092;-80
2024/02/22 15:41:49;;;;;;;0.22;0.10;;;;;;;;;;5033454;28;20036;-80
2024/02/22 15:44:15;;;;;;;0.35;0.10;;;;;;;;;;5032425;28;20049;-80
2024/02/22 15:46:44;;;;;;;1.95;0.32;;;;;;;;;;5038830;28;20171;-80
2024/02/22 15:49:11;;;;;;;9.48;0.25;;;;;;;;;;5041535;28;20037;-77
2024/02/22 15:51:37;;;;;;;0.93;0.40;;;;;;;;;;5044246;28;20128;-78
2024/02/22 15:54:04;;;;;;;6.22;0.50;;;;;;;;;;5048052;28;20471;-80
2024/02/22 15:56:30;;;;;;;0.85;0.38;;;;;;;;;;5028620;28;20064;-81
2024/02/22 15:58:56;;;;;;;0.73;0.30;;;;;;;;;;5032245;28;20029;-80
2024/02/22 16:01:23;;;;;;;0.30;0.20;;;;;;;;;;5032838;28;20117;-78
2024/02/22 16:03:49;;;;;;;1.45;0.43;;;;;;;;;;5039594;28;20044;-78
2024/02/22 16:06:15;;;;;;;1.35;0.45;;;;;;;;;;5032802;28;20033;-78
2024/02/22 16:08:44;;;;;;;1.02;0.20;;;;;;;;;;5038338;28;20029;-78
2024/02/22 16:11:10;;;;;;;0.50;0.35;;;;;;;;;;5034606;28;20031;-81
2024/02/22 16:13:37;;;;;;;1.90;0.38;;;;;;;;;;5033521;28;20061;-80
2024/02/22 16:16:04;;;;;;;2.33;0.80;;;;;;;;;;5033648;28;20026;-81
2024/02/22 16:18:33;;;;;;;4.45;1.08;;;;;;;;;;5036212;28;20102;-81
2024/02/22 16:21:00;;;;;;;4.55;0.95;;;;;;;;;;5031448;28;20030;-79
2024/02/22 16:23:30;;;;;;;2.25;1.45;;;;;;;;;;5030086;28;20056;-79
2024/02/22 16:25:56;;;;;;;5.03;1.58;;;;;;;;;;5032162;28;20025;-81
2024/02/22 16:28:28;;;;;;;4.18;0.98;;;;;;;;;;5031706;28;20030;-81
2024/02/22 16:30:57;;;;;;;10.00;3.65;;;;;;;;;;5032059;28;20521;-81
2024/02/22 16:33:24;;;;;;;0.80;0.40;;;;;;;;;;5032307;28;20112;-81
2024/02/22 16:35:50;;;;;;;1.10;0.50;;;;;;;;;;5031813;28;20029;-82
2024/02/22 16:38:17;;;;;;;1.70;0.40;;;;;;;;;;5033417;28;20037;-81
2024/02/22 16:40:43;;;;;;;1.40;0.60;;;;;;;;;;5032015;28;20056;-81
2024/02/22 16:43:09;;;;;;;3.55;0.90;;;;;;;;;;5038869;28;20040;-81
2024/02/22 16:45:35;;;;;;;1.75;0.63;;;;;;;;;;5031224;28;20037;-81
2024/02/22 16:48:01;;;;;;;2.92;0.63;;;;;;;;;;5031639;28;20017;-79
2024/02/22 16:50:27;;;;;;;3.75;1.25;;;;;;;;;;5030984;28;20036;-81
2024/02/22 16:52:53;;;;;;;3.22;0.73;;;;;;;;;;5031586;28;20104;-82
2024/02/22 16:55:20;;;;;;;7.97;0.45;;;;;;;;;;5029552;28;20492;-81
2024/02/22 16:57:46;;;;;;;3.35;0.60;;;;;;;;;;5032176;28;20177;-80
2024/02/22 17:00:15;;;;;;;3.08;0.63;;;;;;;;;;5031529;28;20069;-82
2024/02/22 17:02:41;;;;;;;1.98;0.50;;;;;;;;;;5034800;28;20112;-82
2024/02/22 17:05:08;;;;;;;1.00;0.60;;;;;;;;;;5034269;28;20371;-82
2024/02/22 17:07:34;;;;;;;2.35;0.40;;;;;;;;;;5032066;28;20030;-81
2024/02/22 17:10:00;;;;;;;7.03;0.65;;;;;;;;;;5030816;28;20048;-82
2024/02/22 17:12:47;;;;;;;1.67;0.57;;;;;;;;;;5068405;22;20067;-82
2024/02/22 17:15:39;;;;;;;1.67;0.55;;;;;;;;;;4998790;28;20096;-82
2024/02/22 17:18:52;;;;;;;1.33;0.52;;;;;;;;;;5006891;28;20037;-83
2024/02/22 17:21:52;;;;;;;2.92;0.80;;;;;;;;;;4980464;28;20072;-83
2024/02/22 17:24:33;;;;;;;8.38;2.08;;;;;;;;;;4966685;28;20144;-83
2024/02/22 17:26:59;;;;;;;41.55;11.00;;;;;;;;;;4979872;28;20041;-81
2024/02/22 17:29:27;;;;;;;34.70;10.40;;;;;;;;;;4987841;28;20539;-82
2024/02/22 17:31:53;;;;;;;14.50;3.63;;;;;;;;;;4968716;28;20038;-82
2024/02/22 17:34:24;;;;;;;9.10;2.85;;;;;;;;;;4973602;28;20081;-82
2024/02/22 17:36:50;;;;;;;6.05;1.77;;;;;;;;;;4968805;28;20034;-82
2024/02/22 17:39:16;;;;;;;4.95;1.30;;;;;;;;;;4988116;28;20038;-81
2024/02/22 17:41:43;;;;;;;4.05;1.05;;;;;;;;;;4987906;28;20053;-81
2024/02/22 17:44:10;;;;;;;3.03;1.23;;;;;;;;;;4968818;28;20930;-81
2024/02/22 17:46:36;;;;;;;2.25;0.50;;;;;;;;;;4995695;28;20133;-81
2024/02/22 17:49:03;;;;;;;2.58;0.93;;;;;;;;;;5005019;28;20033;-81
2024/02/22 17:51:29;;;;;;;3.15;0.70;;;;;;;;;;5010780;28;20038;-81
2024/02/22 17:53:55;;;;;;;4.47;0.82;;;;;;;;;;5006630;28;20042;-80
2024/02/22 17:56:27;;;;;;;1.10;0.40;;;;;;;;;;5010706;28;20033;-80
2024/02/22 17:58:53;;;;;;;1.92;0.38;;;;;;;;;;5009262;28;20034;-80
2024/02/22 18:01:19;;;;;;;0.82;0.40;;;;;;;;;;4997984;28;20026;-81
2024/02/22 18:03:45;;;;;;;1.30;0.35;;;;;;;;;;5007408;28;20030;-80
2024/02/22 18:06:11;;;;;;;0.65;0.20;;;;;;;;;;5003016;28;20038;-80
2024/02/22 18:08:37;;;;;;;1.67;0.60;;;;;;;;;;5010528;28;20033;-81
2024/02/22 18:11:04;;;;;;;1.63;0.45;;;;;;;;;;5010870;28;20037;-81
2024/02/22 18:13:31;;;;;;;1.77;0.57;;;;;;;;;;5009298;28;20045;-82
2024/02/22 18:15:57;;;;;;;1.73;0.77;;;;;;;;;;5011747;28;20834;-82
2024/02/22 18:18:23;;;;;;;1.65;0.30;;;;;;;;;;5011367;28;20049;-82
2024/02/22 18:20:49;;;;;;;2.40;0.60;;;;;;;;;;5010729;28;20033;-82
2024/02/22 18:23:15;;;;;;;10.35;1.15;;;;;;;;;;5001295;28;20040;-83